sensor_id;sensor_type;location;lat;lon;timestamp;P1;durP1;ratioP1;P2;durP2;ratioP2
6280;SDS011;3173;48.204;11.612;2023-03-03T00:00:17;47.90;;;23.40;;
6280;SDS011;3173;48.204;11.612;2023-03-03T00:02:43;51.73;;;23.50;;
6280;SDS011;3173;48.204;11.612;2023-03-03T00:05:09;55.30;;;23.10;;
6280;SDS011;3173;48.204;11.612;2023-03-03T00:07:39;49.72;;;23.95;;
6280;SDS011;3173;48.204;11.612;2023-03-03T00:10:05;56.83;;;23.13;;
6280;SDS011;3173;48.204;11.612;2023-03-03T00:12:31;57.55;;;23.67;;
6280;SDS011;3173;48.204;11.612;2023-03-03T00:14:59;56.47;;;21.80;;
6280;SDS011;3173;48.204;11.612;2023-03-03T00:17:26;61.08;;;23.40;;
6280;SDS011;3173;48.204;11.612;2023-03-03T00:19:53;54.55;;;23.58;;
6280;SDS011;3173;48.204;11.612;2023-03-03T00:22:29;50.95;;;24.50;;
6280;SDS011;3173;48.204;11.612;2023-03-03T00:27:40;51.28;;;23.77;;
6280;SDS011;3173;48.204;11.612;2023-03-03T00:30:16;55.72;;;25.67;;
6280;SDS011;3173;48.204;11.612;2023-03-03T00:32:43;52.10;;;23.77;;
6280;SDS011;3173;48.204;11.612;2023-03-03T00:35:25;51.03;;;21.88;;
6280;SDS011;3173;48.204;11.612;2023-03-03T00:37:58;52.42;;;23.17;;
6280;SDS011;3173;48.204;11.612;2023-03-03T00:42:55;47.55;;;24.02;;
6280;SDS011;3173;48.204;11.612;2023-03-03T00:47:48;53.53;;;24.55;;
6280;SDS011;3173;48.204;11.612;2023-03-03T00:50:36;48.78;;;21.98;;
6280;SDS011;3173;48.204;11.612;2023-03-03T00:53:05;57.33;;;25.45;;
6280;SDS011;3173;48.204;11.612;2023-03-03T00:55:32;54.10;;;22.45;;
6280;SDS011;3173;48.204;11.612;2023-03-03T00:57:58;57.70;;;21.95;;
6280;SDS011;3173;48.204;11.612;2023-03-03T01:00:25;62.15;;;24.35;;
6280;SDS011;3173;48.204;11.612;2023-03-03T01:02:51;50.30;;;23.80;;
6280;SDS011;3173;48.204;11.612;2023-03-03T01:05:17;53.85;;;23.17;;
6280;SDS011;3173;48.204;11.612;2023-03-03T01:07:43;55.00;;;23.05;;
6280;SDS011;3173;48.204;11.612;2023-03-03T01:10:10;65.15;;;24.85;;
6280;SDS011;3173;48.204;11.612;2023-03-03T01:12:36;53.53;;;22.98;;
6280;SDS011;3173;48.204;11.612;2023-03-03T01:15:03;57.27;;;25.13;;
6280;SDS011;3173;48.204;11.612;2023-03-03T01:17:30;50.70;;;22.92;;
6280;SDS011;3173;48.204;11.612;2023-03-03T01:19:56;52.67;;;23.13;;
6280;SDS011;3173;48.204;11.612;2023-03-03T01:22:22;54.42;;;24.10;;
6280;SDS011;3173;48.204;11.612;2023-03-03T01:24:48;52.95;;;23.60;;
6280;SDS011;3173;48.204;11.612;2023-03-03T01:27:14;53.55;;;21.98;;
6280;SDS011;3173;48.204;11.612;2023-03-03T01:29:41;56.35;;;25.80;;
6280;SDS011;3173;48.204;11.612;2023-03-03T01:32:07;62.63;;;24.48;;
6280;SDS011;3173;48.204;11.612;2023-03-03T01:34:33;54.10;;;24.17;;
6280;SDS011;3173;48.204;11.612;2023-03-03T01:36:59;52.05;;;23.17;;
6280;SDS011;3173;48.204;11.612;2023-03-03T01:39:25;60.17;;;23.65;;
6280;SDS011;3173;48.204;11.612;2023-03-03T01:41:51;52.60;;;23.05;;
6280;SDS011;3173;48.204;11.612;2023-03-03T01:44:18;55.40;;;24.52;;
6280;SDS011;3173;48.204;11.612;2023-03-03T01:46:49;60.60;;;22.42;;
6280;SDS011;3173;48.204;11.612;2023-03-03T01:49:27;55.05;;;23.63;;
6280;SDS011;3173;48.204;11.612;2023-03-03T01:51:55;60.25;;;23.85;;
6280;SDS011;3173;48.204;11.612;2023-03-03T01:54:27;50.50;;;23.33;;
6280;SDS011;3173;48.204;11.612;2023-03-03T01:56:56;53.47;;;22.75;;
6280;SDS011;3173;48.204;11.612;2023-03-03T01:59:24;54.95;;;22.65;;
6280;SDS011;3173;48.204;11.612;2023-03-03T02:01:51;56.83;;;23.40;;
6280;SDS011;3173;48.204;11.612;2023-03-03T02:04:18;51.70;;;21.95;;
6280;SDS011;3173;48.204;11.612;2023-03-03T02:06:49;55.63;;;23.77;;
6280;SDS011;3173;48.204;11.612;2023-03-03T02:09:28;52.08;;;23.58;;
6280;SDS011;3173;48.204;11.612;2023-03-03T02:11:58;52.22;;;22.52;;
6280;SDS011;3173;48.204;11.612;2023-03-03T02:14:25;51.83;;;23.33;;
6280;SDS011;3173;48.204;11.612;2023-03-03T02:16:51;56.15;;;24.60;;
6280;SDS011;3173;48.204;11.612;2023-03-03T02:19:30;52.13;;;22.30;;
6280;SDS011;3173;48.204;11.612;2023-03-03T02:21:58;57.70;;;23.17;;
6280;SDS011;3173;48.204;11.612;2023-03-03T02:24:32;54.88;;;24.65;;
6280;SDS011;3173;48.204;11.612;2023-03-03T02:26:59;48.10;;;21.05;;
6280;SDS011;3173;48.204;11.612;2023-03-03T02:29:25;55.17;;;24.23;;
6280;SDS011;3173;48.204;11.612;2023-03-03T02:31:52;54.03;;;24.30;;
6280;SDS011;3173;48.204;11.612;2023-03-03T02:34:18;54.67;;;22.70;;
6280;SDS011;3173;48.204;11.612;2023-03-03T02:36:44;46.33;;;21.93;;
6280;SDS011;3173;48.204;11.612;2023-03-03T02:39:17;55.70;;;23.67;;
6280;SDS011;3173;48.204;11.612;2023-03-03T02:44:21;50.20;;;22.45;;
6280;SDS011;3173;48.204;11.612;2023-03-03T02:46:48;49.05;;;21.02;;
6280;SDS011;3173;48.204;11.612;2023-03-03T02:49:15;54.92;;;23.63;;
6280;SDS011;3173;48.204;11.612;2023-03-03T02:51:41;50.50;;;23.90;;
6280;SDS011;3173;48.204;11.612;2023-03-03T02:54:08;53.33;;;22.52;;
6280;SDS011;3173;48.204;11.612;2023-03-03T02:56:35;52.00;;;23.47;;
6280;SDS011;3173;48.204;11.612;2023-03-03T02:59:01;54.93;;;24.23;;
6280;SDS011;3173;48.204;11.612;2023-03-03T03:01:27;55.20;;;22.52;;
6280;SDS011;3173;48.204;11.612;2023-03-03T03:03:56;50.73;;;23.00;;
6280;SDS011;3173;48.204;11.612;2023-03-03T03:06:23;52.67;;;23.52;;
6280;SDS011;3173;48.204;11.612;2023-03-03T03:08:49;50.23;;;24.00;;
6280;SDS011;3173;48.204;11.612;2023-03-03T03:11:15;51.20;;;23.80;;
6280;SDS011;3173;48.204;11.612;2023-03-03T03:13:41;58.45;;;24.80;;
6280;SDS011;3173;48.204;11.612;2023-03-03T03:16:07;53.20;;;23.07;;
6280;SDS011;3173;48.204;11.612;2023-03-03T03:18:33;54.50;;;23.93;;
6280;SDS011;3173;48.204;11.612;2023-03-03T03:21:07;51.97;;;22.60;;
6280;SDS011;3173;48.204;11.612;2023-03-03T03:23:33;58.87;;;25.73;;
6280;SDS011;3173;48.204;11.612;2023-03-03T03:26:00;53.53;;;23.50;;
6280;SDS011;3173;48.204;11.612;2023-03-03T03:28:26;55.27;;;24.57;;
6280;SDS011;3173;48.204;11.612;2023-03-03T03:30:52;48.90;;;22.93;;
6280;SDS011;3173;48.204;11.612;2023-03-03T03:33:18;56.07;;;23.27;;
6280;SDS011;3173;48.204;11.612;2023-03-03T03:35:44;54.23;;;23.10;;
6280;SDS011;3173;48.204;11.612;2023-03-03T03:38:12;52.10;;;23.23;;
6280;SDS011;3173;48.204;11.612;2023-03-03T03:40:38;50.13;;;23.97;;
6280;SDS011;3173;48.204;11.612;2023-03-03T03:43:04;56.67;;;23.53;;
6280;SDS011;3173;48.204;11.612;2023-03-03T03:45:30;50.90;;;22.40;;
6280;SDS011;3173;48.204;11.612;2023-03-03T03:47:57;52.40;;;23.73;;
6280;SDS011;3173;48.204;11.612;2023-03-03T03:50:23;55.00;;;24.43;;
6280;SDS011;3173;48.204;11.612;2023-03-03T03:52:49;48.83;;;23.77;;
6280;SDS011;3173;48.204;11.612;2023-03-03T03:55:16;56.23;;;23.27;;
6280;SDS011;3173;48.204;11.612;2023-03-03T03:57:42;55.70;;;23.37;;
6280;SDS011;3173;48.204;11.612;2023-03-03T04:00:08;51.90;;;24.10;;
6280;SDS011;3173;48.204;11.612;2023-03-03T04:02:35;52.67;;;23.67;;
6280;SDS011;3173;48.204;11.612;2023-03-03T04:05:02;50.07;;;22.40;;
6280;SDS011;3173;48.204;11.612;2023-03-03T04:07:28;50.40;;;23.73;;
6280;SDS011;3173;48.204;11.612;2023-03-03T04:09:54;47.37;;;22.27;;
6280;SDS011;3173;48.204;11.612;2023-03-03T04:12:20;55.97;;;24.20;;
6280;SDS011;3173;48.204;11.612;2023-03-03T04:14:46;52.63;;;23.67;;
6280;SDS011;3173;48.204;11.612;2023-03-03T04:17:21;45.30;;;21.30;;
6280;SDS011;3173;48.204;11.612;2023-03-03T04:19:51;52.17;;;22.47;;
6280;SDS011;3173;48.204;11.612;2023-03-03T04:22:17;49.70;;;23.30;;
6280;SDS011;3173;48.204;11.612;2023-03-03T04:24:43;52.50;;;23.97;;
6280;SDS011;3173;48.204;11.612;2023-03-03T04:27:12;54.30;;;24.33;;
6280;SDS011;3173;48.204;11.612;2023-03-03T04:29:39;49.77;;;24.57;;
6280;SDS011;3173;48.204;11.612;2023-03-03T04:32:06;57.90;;;24.40;;
6280;SDS011;3173;48.204;11.612;2023-03-03T04:34:32;56.03;;;24.83;;
6280;SDS011;3173;48.204;11.612;2023-03-03T04:36:59;52.50;;;24.13;;
6280;SDS011;3173;48.204;11.612;2023-03-03T04:39:26;52.40;;;24.13;;
6280;SDS011;3173;48.204;11.612;2023-03-03T04:41:53;53.37;;;25.10;;
6280;SDS011;3173;48.204;11.612;2023-03-03T04:44:19;58.53;;;25.00;;
6280;SDS011;3173;48.204;11.612;2023-03-03T04:46:45;49.70;;;23.10;;
6280;SDS011;3173;48.204;11.612;2023-03-03T04:49:11;56.53;;;25.17;;
6280;SDS011;3173;48.204;11.612;2023-03-03T04:51:37;57.00;;;25.57;;
6280;SDS011;3173;48.204;11.612;2023-03-03T04:54:04;58.07;;;25.47;;
6280;SDS011;3173;48.204;11.612;2023-03-03T04:56:30;54.93;;;24.90;;
6280;SDS011;3173;48.204;11.612;2023-03-03T04:58:56;55.13;;;23.97;;
6280;SDS011;3173;48.204;11.612;2023-03-03T05:01:22;60.87;;;25.57;;
6280;SDS011;3173;48.204;11.612;2023-03-03T05:03:49;58.53;;;26.27;;
6280;SDS011;3173;48.204;11.612;2023-03-03T05:06:15;57.90;;;25.07;;
6280;SDS011;3173;48.204;11.612;2023-03-03T05:08:42;53.37;;;22.47;;
6280;SDS011;3173;48.204;11.612;2023-03-03T05:11:09;55.97;;;25.53;;
6280;SDS011;3173;48.204;11.612;2023-03-03T05:13:35;56.00;;;24.40;;
6280;SDS011;3173;48.204;11.612;2023-03-03T05:16:01;60.17;;;25.17;;
6280;SDS011;3173;48.204;11.612;2023-03-03T05:18:27;58.13;;;25.07;;
6280;SDS011;3173;48.204;11.612;2023-03-03T05:20:54;56.10;;;24.70;;
6280;SDS011;3173;48.204;11.612;2023-03-03T05:23:20;59.60;;;25.03;;
6280;SDS011;3173;48.204;11.612;2023-03-03T05:25:46;54.20;;;26.10;;
6280;SDS011;3173;48.204;11.612;2023-03-03T05:28:13;58.93;;;25.93;;
6280;SDS011;3173;48.204;11.612;2023-03-03T05:30:39;53.00;;;26.57;;
6280;SDS011;3173;48.204;11.612;2023-03-03T05:33:05;55.33;;;23.60;;
6280;SDS011;3173;48.204;11.612;2023-03-03T05:35:32;65.23;;;26.03;;
6280;SDS011;3173;48.204;11.612;2023-03-03T05:37:58;62.77;;;29.50;;
6280;SDS011;3173;48.204;11.612;2023-03-03T05:40:24;54.17;;;23.87;;
6280;SDS011;3173;48.204;11.612;2023-03-03T05:42:51;51.17;;;23.80;;
6280;SDS011;3173;48.204;11.612;2023-03-03T05:45:18;65.80;;;27.23;;
6280;SDS011;3173;48.204;11.612;2023-03-03T05:47:51;63.87;;;26.20;;
6280;SDS011;3173;48.204;11.612;2023-03-03T05:50:17;64.53;;;26.07;;
6280;SDS011;3173;48.204;11.612;2023-03-03T05:52:46;56.87;;;26.90;;
6280;SDS011;3173;48.204;11.612;2023-03-03T05:55:13;52.37;;;24.53;;
6280;SDS011;3173;48.204;11.612;2023-03-03T05:57:39;53.47;;;24.17;;
6280;SDS011;3173;48.204;11.612;2023-03-03T06:00:05;68.33;;;27.17;;
6280;SDS011;3173;48.204;11.612;2023-03-03T06:02:33;61.23;;;26.47;;
6280;SDS011;3173;48.204;11.612;2023-03-03T06:04:59;58.93;;;25.20;;
6280;SDS011;3173;48.204;11.612;2023-03-03T06:07:25;60.07;;;25.00;;
6280;SDS011;3173;48.204;11.612;2023-03-03T06:09:51;52.87;;;25.13;;
6280;SDS011;3173;48.204;11.612;2023-03-03T06:12:18;56.63;;;24.60;;
6280;SDS011;3173;48.204;11.612;2023-03-03T06:14:44;68.83;;;25.53;;
6280;SDS011;3173;48.204;11.612;2023-03-03T06:17:10;49.57;;;23.10;;
6280;SDS011;3173;48.204;11.612;2023-03-03T06:19:37;62.30;;;27.00;;
6280;SDS011;3173;48.204;11.612;2023-03-03T06:22:05;54.30;;;25.20;;
6280;SDS011;3173;48.204;11.612;2023-03-03T06:24:31;57.80;;;24.93;;
6280;SDS011;3173;48.204;11.612;2023-03-03T06:26:58;58.50;;;26.40;;
6280;SDS011;3173;48.204;11.612;2023-03-03T06:29:24;56.90;;;24.23;;
6280;SDS011;3173;48.204;11.612;2023-03-03T06:31:50;68.53;;;27.53;;
6280;SDS011;3173;48.204;11.612;2023-03-03T06:34:17;60.90;;;26.57;;
6280;SDS011;3173;48.204;11.612;2023-03-03T06:36:43;63.90;;;27.40;;
6280;SDS011;3173;48.204;11.612;2023-03-03T06:39:09;70.67;;;26.73;;
6280;SDS011;3173;48.204;11.612;2023-03-03T06:41:35;58.97;;;26.97;;
6280;SDS011;3173;48.204;11.612;2023-03-03T06:44:02;57.70;;;25.03;;
6280;SDS011;3173;48.204;11.612;2023-03-03T06:46:28;57.83;;;24.10;;
6280;SDS011;3173;48.204;11.612;2023-03-03T06:48:54;62.73;;;27.73;;
6280;SDS011;3173;48.204;11.612;2023-03-03T06:51:22;63.97;;;27.40;;
6280;SDS011;3173;48.204;11.612;2023-03-03T06:53:51;64.30;;;27.63;;
6280;SDS011;3173;48.204;11.612;2023-03-03T06:56:18;63.50;;;27.60;;
6280;SDS011;3173;48.204;11.612;2023-03-03T06:58:44;64.53;;;26.67;;
6280;SDS011;3173;48.204;11.612;2023-03-03T07:01:12;57.17;;;28.50;;
6280;SDS011;3173;48.204;11.612;2023-03-03T07:03:40;59.47;;;27.10;;
6280;SDS011;3173;48.204;11.612;2023-03-03T07:06:22;54.70;;;25.93;;
6280;SDS011;3173;48.204;11.612;2023-03-03T07:08:49;69.23;;;29.80;;
6280;SDS011;3173;48.204;11.612;2023-03-03T07:11:17;61.53;;;27.93;;
6280;SDS011;3173;48.204;11.612;2023-03-03T07:13:48;60.47;;;26.07;;
6280;SDS011;3173;48.204;11.612;2023-03-03T07:16:15;62.87;;;26.97;;
6280;SDS011;3173;48.204;11.612;2023-03-03T07:21:15;53.17;;;25.70;;
6280;SDS011;3173;48.204;11.612;2023-03-03T07:23:42;56.10;;;26.00;;
6280;SDS011;3173;48.204;11.612;2023-03-03T07:26:10;60.03;;;27.20;;
6280;SDS011;3173;48.204;11.612;2023-03-03T07:28:39;58.13;;;26.13;;
6280;SDS011;3173;48.204;11.612;2023-03-03T07:31:15;58.37;;;26.20;;
6280;SDS011;3173;48.204;11.612;2023-03-03T07:33:42;59.63;;;26.90;;
6280;SDS011;3173;48.204;11.612;2023-03-03T07:36:28;64.40;;;27.37;;
6280;SDS011;3173;48.204;11.612;2023-03-03T07:38:59;59.43;;;24.53;;
6280;SDS011;3173;48.204;11.612;2023-03-03T07:41:25;61.20;;;27.47;;
6280;SDS011;3173;48.204;11.612;2023-03-03T07:43:52;62.13;;;30.07;;
6280;SDS011;3173;48.204;11.612;2023-03-03T07:48:56;55.40;;;26.23;;
6280;SDS011;3173;48.204;11.612;2023-03-03T07:51:24;55.80;;;25.37;;
6280;SDS011;3173;48.204;11.612;2023-03-03T07:53:52;59.57;;;26.70;;
6280;SDS011;3173;48.204;11.612;2023-03-03T07:56:21;69.37;;;28.37;;
6280;SDS011;3173;48.204;11.612;2023-03-03T07:58:51;57.13;;;27.17;;
6280;SDS011;3173;48.204;11.612;2023-03-03T08:01:23;60.80;;;28.43;;
6280;SDS011;3173;48.204;11.612;2023-03-03T08:03:52;59.63;;;26.67;;
6280;SDS011;3173;48.204;11.612;2023-03-03T08:08:53;59.57;;;28.33;;
6280;SDS011;3173;48.204;11.612;2023-03-03T08:11:20;59.60;;;28.07;;
6280;SDS011;3173;48.204;11.612;2023-03-03T08:13:46;55.50;;;27.07;;
6280;SDS011;3173;48.204;11.612;2023-03-03T08:21:05;64.60;;;27.67;;
6280;SDS011;3173;48.204;11.612;2023-03-03T08:23:33;59.67;;;28.60;;
6280;SDS011;3173;48.204;11.612;2023-03-03T08:25:59;57.77;;;25.57;;
6280;SDS011;3173;48.204;11.612;2023-03-03T08:28:25;57.87;;;27.40;;
6280;SDS011;3173;48.204;11.612;2023-03-03T08:30:51;61.17;;;29.57;;
6280;SDS011;3173;48.204;11.612;2023-03-03T08:33:17;60.83;;;27.63;;
6280;SDS011;3173;48.204;11.612;2023-03-03T08:35:43;61.73;;;29.07;;
6280;SDS011;3173;48.204;11.612;2023-03-03T08:38:10;58.67;;;27.80;;
6280;SDS011;3173;48.204;11.612;2023-03-03T08:40:36;50.13;;;28.00;;
6280;SDS011;3173;48.204;11.612;2023-03-03T08:43:02;59.57;;;29.17;;
6280;SDS011;3173;48.204;11.612;2023-03-03T08:45:29;59.90;;;28.80;;
6280;SDS011;3173;48.204;11.612;2023-03-03T08:47:55;64.20;;;29.70;;
6280;SDS011;3173;48.204;11.612;2023-03-03T08:50:21;64.17;;;28.20;;
6280;SDS011;3173;48.204;11.612;2023-03-03T08:52:47;53.43;;;28.87;;
6280;SDS011;3173;48.204;11.612;2023-03-03T08:55:13;53.60;;;25.87;;
6280;SDS011;3173;48.204;11.612;2023-03-03T08:57:39;57.63;;;28.60;;
6280;SDS011;3173;48.204;11.612;2023-03-03T09:00:06;60.37;;;29.03;;
6280;SDS011;3173;48.204;11.612;2023-03-03T09:02:33;63.07;;;30.27;;
6280;SDS011;3173;48.204;11.612;2023-03-03T09:04:59;58.30;;;28.03;;
6280;SDS011;3173;48.204;11.612;2023-03-03T09:07:25;58.33;;;29.60;;
6280;SDS011;3173;48.204;11.612;2023-03-03T09:09:51;60.20;;;28.80;;
6280;SDS011;3173;48.204;11.612;2023-03-03T09:14:43;53.27;;;27.40;;
6280;SDS011;3173;48.204;11.612;2023-03-03T09:17:21;62.07;;;28.43;;
6280;SDS011;3173;48.204;11.612;2023-03-03T09:19:49;57.43;;;27.40;;
6280;SDS011;3173;48.204;11.612;2023-03-03T09:22:22;56.90;;;28.60;;
6280;SDS011;3173;48.204;11.612;2023-03-03T09:24:49;56.97;;;28.73;;
6280;SDS011;3173;48.204;11.612;2023-03-03T09:27:19;60.67;;;28.50;;
6280;SDS011;3173;48.204;11.612;2023-03-03T09:29:49;65.00;;;28.70;;
6280;SDS011;3173;48.204;11.612;2023-03-03T09:32:34;54.57;;;29.37;;
6280;SDS011;3173;48.204;11.612;2023-03-03T09:35:25;60.93;;;29.77;;
6280;SDS011;3173;48.204;11.612;2023-03-03T09:37:52;55.90;;;27.30;;
6280;SDS011;3173;48.204;11.612;2023-03-03T09:40:36;61.10;;;30.17;;
6280;SDS011;3173;48.204;11.612;2023-03-03T09:43:15;53.27;;;27.40;;
6280;SDS011;3173;48.204;11.612;2023-03-03T09:48:50;53.70;;;30.33;;
6280;SDS011;3173;48.204;11.612;2023-03-03T09:51:12;53.37;;;28.70;;
6280;SDS011;3173;48.204;11.612;2023-03-03T09:53:49;57.60;;;28.90;;
6280;SDS011;3173;48.204;11.612;2023-03-03T09:56:32;50.50;;;28.30;;
6280;SDS011;3173;48.204;11.612;2023-03-03T10:12:21;56.33;;;29.20;;
6280;SDS011;3173;48.204;11.612;2023-03-03T10:17:39;60.53;;;29.10;;
6280;SDS011;3173;48.204;11.612;2023-03-03T10:20:24;57.43;;;29.20;;
6280;SDS011;3173;48.204;11.612;2023-03-03T10:25:36;52.20;;;28.57;;
6280;SDS011;3173;48.204;11.612;2023-03-03T10:28:21;55.13;;;28.10;;
6280;SDS011;3173;48.204;11.612;2023-03-03T10:33:31;56.37;;;28.00;;
6280;SDS011;3173;48.204;11.612;2023-03-03T10:46:33;59.83;;;30.40;;
6280;SDS011;3173;48.204;11.612;2023-03-03T10:52:05;56.77;;;28.23;;
6280;SDS011;3173;48.204;11.612;2023-03-03T10:54:49;48.80;;;29.30;;
6280;SDS011;3173;48.204;11.612;2023-03-03T11:00:06;54.60;;;27.53;;
6280;SDS011;3173;48.204;11.612;2023-03-03T11:02:46;59.00;;;29.00;;
6280;SDS011;3173;48.204;11.612;2023-03-03T11:08:13;58.07;;;30.00;;
6280;SDS011;3173;48.204;11.612;2023-03-03T11:10:59;56.30;;;28.40;;
6280;SDS011;3173;48.204;11.612;2023-03-03T11:13:40;56.33;;;29.87;;
6280;SDS011;3173;48.204;11.612;2023-03-03T11:16:12;54.43;;;28.10;;
6280;SDS011;3173;48.204;11.612;2023-03-03T11:34:34;57.10;;;30.67;;
6280;SDS011;3173;48.204;11.612;2023-03-03T11:37:05;62.13;;;30.00;;
6280;SDS011;3173;48.204;11.612;2023-03-03T11:39:33;58.67;;;28.53;;
6280;SDS011;3173;48.204;11.612;2023-03-03T11:42:07;60.30;;;30.30;;
6280;SDS011;3173;48.204;11.612;2023-03-03T11:44:53;55.73;;;29.37;;
6280;SDS011;3173;48.204;11.612;2023-03-03T11:52:31;57.53;;;31.00;;
6280;SDS011;3173;48.204;11.612;2023-03-03T11:55:46;53.00;;;29.83;;
6280;SDS011;3173;48.204;11.612;2023-03-03T12:24:45;51.00;;;30.20;;
6280;SDS011;3173;48.204;11.612;2023-03-03T12:27:20;45.20;;;28.83;;
6280;SDS011;3173;48.204;11.612;2023-03-03T12:47:49;52.00;;;30.93;;
6280;SDS011;3173;48.204;11.612;2023-03-03T12:55:15;49.80;;;30.13;;
6280;SDS011;3173;48.204;11.612;2023-03-03T12:58:33;47.53;;;31.00;;
6280;SDS011;3173;48.204;11.612;2023-03-03T13:00:52;54.03;;;32.83;;
6280;SDS011;3173;48.204;11.612;2023-03-03T13:06:02;51.13;;;31.47;;
6280;SDS011;3173;48.204;11.612;2023-03-03T13:13:59;46.03;;;28.73;;
6280;SDS011;3173;48.204;11.612;2023-03-03T13:16:37;53.63;;;31.17;;
6280;SDS011;3173;48.204;11.612;2023-03-03T13:19:07;57.70;;;31.83;;
6280;SDS011;3173;48.204;11.612;2023-03-03T13:24:23;46.10;;;29.30;;
6280;SDS011;3173;48.204;11.612;2023-03-03T13:26:52;50.30;;;29.10;;
6280;SDS011;3173;48.204;11.612;2023-03-03T13:29:31;56.10;;;28.60;;
6280;SDS011;3173;48.204;11.612;2023-03-03T13:32:04;50.60;;;29.03;;
6280;SDS011;3173;48.204;11.612;2023-03-03T13:37:04;50.03;;;28.00;;
6280;SDS011;3173;48.204;11.612;2023-03-03T13:39:53;49.97;;;28.67;;
6280;SDS011;3173;48.204;11.612;2023-03-03T13:45:06;41.50;;;26.37;;
6280;SDS011;3173;48.204;11.612;2023-03-03T13:47:40;56.50;;;26.47;;
6280;SDS011;3173;48.204;11.612;2023-03-03T13:50:33;57.40;;;28.20;;
6280;SDS011;3173;48.204;11.612;2023-03-03T13:55:43;50.83;;;28.00;;
6280;SDS011;3173;48.204;11.612;2023-03-03T13:58:22;51.47;;;27.67;;
6280;SDS011;3173;48.204;11.612;2023-03-03T14:03:49;52.67;;;27.57;;
6280;SDS011;3173;48.204;11.612;2023-03-03T14:06:19;44.63;;;27.17;;
6280;SDS011;3173;48.204;11.612;2023-03-03T14:08:53;48.20;;;26.93;;
6280;SDS011;3173;48.204;11.612;2023-03-03T14:11:25;49.77;;;28.27;;
6280;SDS011;3173;48.204;11.612;2023-03-03T14:19:02;48.20;;;27.20;;
6280;SDS011;3173;48.204;11.612;2023-03-03T14:21:30;51.83;;;28.50;;
6280;SDS011;3173;48.204;11.612;2023-03-03T14:24:13;47.70;;;27.27;;
6280;SDS011;3173;48.204;11.612;2023-03-03T14:26:53;55.73;;;29.63;;
6280;SDS011;3173;48.204;11.612;2023-03-03T14:31:45;50.27;;;29.17;;
6280;SDS011;3173;48.204;11.612;2023-03-03T14:36:50;47.97;;;27.43;;
6280;SDS011;3173;48.204;11.612;2023-03-03T14:39:35;46.83;;;27.17;;
6280;SDS011;3173;48.204;11.612;2023-03-03T14:42:28;44.87;;;26.97;;
6280;SDS011;3173;48.204;11.612;2023-03-03T14:44:54;57.13;;;25.53;;
6280;SDS011;3173;48.204;11.612;2023-03-03T14:47:23;45.50;;;27.17;;
6280;SDS011;3173;48.204;11.612;2023-03-03T14:49:51;47.90;;;26.10;;
6280;SDS011;3173;48.204;11.612;2023-03-03T14:52:19;51.70;;;26.50;;
6280;SDS011;3173;48.204;11.612;2023-03-03T14:54:51;47.27;;;26.27;;
6280;SDS011;3173;48.204;11.612;2023-03-03T14:57:19;47.10;;;26.03;;
6280;SDS011;3173;48.204;11.612;2023-03-03T14:59:59;44.70;;;26.47;;
6280;SDS011;3173;48.204;11.612;2023-03-03T15:02:27;47.73;;;26.87;;
6280;SDS011;3173;48.204;11.612;2023-03-03T15:05:07;49.10;;;26.20;;
6280;SDS011;3173;48.204;11.612;2023-03-03T15:07:36;42.37;;;25.63;;
6280;SDS011;3173;48.204;11.612;2023-03-03T15:10:04;44.40;;;27.57;;
6280;SDS011;3173;48.204;11.612;2023-03-03T15:17:33;52.57;;;28.43;;
6280;SDS011;3173;48.204;11.612;2023-03-03T15:20:07;47.37;;;27.60;;
6280;SDS011;3173;48.204;11.612;2023-03-03T15:22:48;46.07;;;27.20;;
6280;SDS011;3173;48.204;11.612;2023-03-03T15:25:23;48.67;;;26.93;;
6280;SDS011;3173;48.204;11.612;2023-03-03T15:30:42;50.40;;;27.17;;
6280;SDS011;3173;48.204;11.612;2023-03-03T15:38:49;48.90;;;25.77;;
6280;SDS011;3173;48.204;11.612;2023-03-03T15:41:37;44.43;;;25.00;;
6280;SDS011;3173;48.204;11.612;2023-03-03T15:44:11;49.63;;;27.07;;
6280;SDS011;3173;48.204;11.612;2023-03-03T15:46:42;50.53;;;26.57;;
6280;SDS011;3173;48.204;11.612;2023-03-03T15:49:21;48.30;;;26.27;;
6280;SDS011;3173;48.204;11.612;2023-03-03T15:56:53;45.20;;;25.47;;
6280;SDS011;3173;48.204;11.612;2023-03-03T15:59:28;53.90;;;28.80;;
6280;SDS011;3173;48.204;11.612;2023-03-03T16:02:03;48.00;;;26.60;;
6280;SDS011;3173;48.204;11.612;2023-03-03T16:04:33;55.43;;;27.10;;
6280;SDS011;3173;48.204;11.612;2023-03-03T16:09:51;52.73;;;26.73;;
6280;SDS011;3173;48.204;11.612;2023-03-03T16:12:30;48.90;;;26.03;;
6280;SDS011;3173;48.204;11.612;2023-03-03T16:15:47;48.57;;;27.20;;
6280;SDS011;3173;48.204;11.612;2023-03-03T16:33:02;50.43;;;28.00;;
6280;SDS011;3173;48.204;11.612;2023-03-03T16:35:36;50.97;;;27.20;;
6280;SDS011;3173;48.204;11.612;2023-03-03T16:40:43;56.23;;;29.23;;
6280;SDS011;3173;48.204;11.612;2023-03-03T16:48:56;54.93;;;28.30;;
6280;SDS011;3173;48.204;11.612;2023-03-03T16:51:32;56.30;;;28.50;;
6280;SDS011;3173;48.204;11.612;2023-03-03T16:56:37;58.50;;;29.57;;
6280;SDS011;3173;48.204;11.612;2023-03-03T16:59:12;60.97;;;28.30;;
6280;SDS011;3173;48.204;11.612;2023-03-03T17:09:57;49.57;;;27.73;;
6280;SDS011;3173;48.204;11.612;2023-03-03T17:12:39;55.10;;;28.90;;
6280;SDS011;3173;48.204;11.612;2023-03-03T17:17:45;63.80;;;30.70;;
6280;SDS011;3173;48.204;11.612;2023-03-03T17:22:42;55.47;;;28.43;;
6280;SDS011;3173;48.204;11.612;2023-03-03T17:30:23;55.40;;;28.43;;
6280;SDS011;3173;48.204;11.612;2023-03-03T17:38:05;51.97;;;27.90;;
6280;SDS011;3173;48.204;11.612;2023-03-03T17:40:46;60.47;;;28.60;;
6280;SDS011;3173;48.204;11.612;2023-03-03T17:45:42;55.43;;;29.47;;
6280;SDS011;3173;48.204;11.612;2023-03-03T17:58:37;55.97;;;28.93;;
6280;SDS011;3173;48.204;11.612;2023-03-03T18:11:19;67.13;;;30.97;;
6280;SDS011;3173;48.204;11.612;2023-03-03T18:24:32;61.00;;;31.33;;
6280;SDS011;3173;48.204;11.612;2023-03-03T18:27:34;57.20;;;30.00;;
6280;SDS011;3173;48.204;11.612;2023-03-03T18:32:41;64.53;;;31.77;;
6280;SDS011;3173;48.204;11.612;2023-03-03T18:37:53;69.23;;;31.70;;
6280;SDS011;3173;48.204;11.612;2023-03-03T18:42:49;59.63;;;30.60;;
6280;SDS011;3173;48.204;11.612;2023-03-03T18:48:29;71.13;;;34.70;;
6280;SDS011;3173;48.204;11.612;2023-03-03T18:50:37;72.40;;;32.70;;
6280;SDS011;3173;48.204;11.612;2023-03-03T18:55:39;64.70;;;33.97;;
6280;SDS011;3173;48.204;11.612;2023-03-03T18:58:51;66.53;;;31.57;;
6280;SDS011;3173;48.204;11.612;2023-03-03T19:06:28;65.43;;;28.13;;
6280;SDS011;3173;48.204;11.612;2023-03-03T19:08:55;68.60;;;31.20;;
6280;SDS011;3173;48.204;11.612;2023-03-03T19:16:38;61.70;;;29.60;;
6280;SDS011;3173;48.204;11.612;2023-03-03T19:19:28;69.23;;;31.80;;
6280;SDS011;3173;48.204;11.612;2023-03-03T19:21:51;63.90;;;31.93;;
6280;SDS011;3173;48.204;11.612;2023-03-03T19:24:37;74.80;;;31.77;;
6280;SDS011;3173;48.204;11.612;2023-03-03T19:27:13;63.53;;;32.00;;
6280;SDS011;3173;48.204;11.612;2023-03-03T19:32:26;67.80;;;30.83;;
6280;SDS011;3173;48.204;11.612;2023-03-03T19:35:17;73.53;;;32.50;;
6280;SDS011;3173;48.204;11.612;2023-03-03T19:40:41;69.87;;;31.37;;
6280;SDS011;3173;48.204;11.612;2023-03-03T19:50:52;75.20;;;33.60;;
6280;SDS011;3173;48.204;11.612;2023-03-03T19:53:27;59.43;;;31.43;;
6280;SDS011;3173;48.204;11.612;2023-03-03T20:01:27;67.93;;;32.23;;
6280;SDS011;3173;48.204;11.612;2023-03-03T20:14:05;65.67;;;33.53;;
6280;SDS011;3173;48.204;11.612;2023-03-03T20:16:38;68.80;;;34.40;;
6280;SDS011;3173;48.204;11.612;2023-03-03T20:24:48;74.60;;;35.10;;